createdAt,value
2023-01-22T00:00:06.737Z,41.83
2023-01-22T00:02:39.157Z,42.75
2023-01-22T00:05:06.127Z,43.60
2023-01-22T00:07:32.879Z,38.58
2023-01-22T00:10:02.235Z,38.55
2023-01-22T00:12:28.668Z,39.10
2023-01-22T00:14:55.450Z,39.10
2023-01-22T00:17:21.918Z,39.95
2023-01-22T00:19:48.331Z,37.45
2023-01-22T00:22:14.813Z,41.10
2023-01-22T00:24:41.296Z,37.47
2023-01-22T00:27:07.712Z,39.40
2023-01-22T00:29:34.825Z,39.05
2023-01-22T00:32:01.581Z,37.28
2023-01-22T00:34:28.205Z,39.60
2023-01-22T00:36:57.475Z,40.00
2023-01-22T00:39:23.995Z,40.53
2023-01-22T00:41:51.559Z,39.88
2023-01-22T00:44:18.220Z,39.30
2023-01-22T00:46:44.677Z,38.10
2023-01-22T00:49:12.375Z,37.88
2023-01-22T00:51:39.472Z,39.10
2023-01-22T00:54:06.646Z,38.72
2023-01-22T00:56:33.175Z,37.50
2023-01-22T00:58:59.770Z,37.00
2023-01-22T01:01:26.365Z,38.70
2023-01-22T01:03:52.878Z,40.30
2023-01-22T01:06:21.478Z,37.92
2023-01-22T01:08:49.399Z,39.25
2023-01-22T01:11:25.982Z,38.78
2023-01-22T01:13:53.146Z,40.30
2023-01-22T01:16:29.719Z,41.95
2023-01-22T01:19:04.403Z,37.85
2023-01-22T01:21:31.556Z,35.92
2023-01-22T01:23:59.544Z,36.92
2023-01-22T01:26:26.507Z,37.10
2023-01-22T01:28:55.624Z,36.53
2023-01-22T01:31:24.269Z,32.45
2023-01-22T01:33:50.784Z,33.88
2023-01-22T01:36:40.524Z,35.50
2023-01-22T01:39:10.899Z,36.95
2023-01-22T01:41:37.461Z,34.70
2023-01-22T01:44:18.033Z,34.75
2023-01-22T01:46:51.887Z,35.38
2023-01-22T01:49:22.339Z,34.70
2023-01-22T01:51:50.216Z,32.97
2023-01-22T01:54:17.741Z,30.60
2023-01-22T01:56:50.668Z,36.08
2023-01-22T01:59:19.727Z,35.05
2023-01-22T02:01:53.421Z,37.67
2023-01-22T02:04:20.659Z,34.65
2023-01-22T02:06:47.316Z,35.47
2023-01-22T02:09:14.573Z,35.30
2023-01-22T02:11:41.234Z,36.67
2023-01-22T02:14:14.121Z,34.42
2023-01-22T02:16:40.627Z,36.83
2023-01-22T02:19:07.065Z,35.80
2023-01-22T02:21:37.906Z,39.88
2023-01-22T02:24:10.127Z,36.15
2023-01-22T02:26:38.884Z,38.22
2023-01-22T02:29:08.011Z,36.72
2023-01-22T02:31:40.490Z,32.38
2023-01-22T02:34:08.603Z,33.97
2023-01-22T02:36:37.083Z,35.78
2023-01-22T02:39:04.175Z,33.45
2023-01-22T02:41:31.224Z,35.00
2023-01-22T02:43:59.088Z,31.60
2023-01-22T02:46:30.255Z,32.47
2023-01-22T02:48:56.667Z,29.73
2023-01-22T02:51:23.327Z,31.45
2023-01-22T02:53:50.000Z,32.03
2023-01-22T02:56:17.222Z,31.13
2023-01-22T02:58:43.727Z,30.17
2023-01-22T03:01:18.997Z,31.05
2023-01-22T03:03:50.934Z,27.80
2023-01-22T03:06:21.785Z,32.28
2023-01-22T03:08:50.365Z,28.77
2023-01-22T03:11:16.828Z,30.17
2023-01-22T03:14:02.548Z,31.30
2023-01-22T03:16:47.892Z,29.95
2023-01-22T03:19:33.094Z,26.02
2023-01-22T03:21:59.559Z,25.08
2023-01-22T03:24:26.510Z,29.65
2023-01-22T03:26:53.339Z,25.23
2023-01-22T03:29:19.894Z,26.48
2023-01-22T03:31:48.550Z,25.75
2023-01-22T03:34:16.458Z,25.85
2023-01-22T03:36:44.681Z,24.77
2023-01-22T03:39:12.947Z,27.00
2023-01-22T03:41:40.089Z,26.83
2023-01-22T03:44:11.708Z,27.08
2023-01-22T03:46:40.161Z,27.63
2023-01-22T03:49:08.496Z,27.98
2023-01-22T03:51:36.987Z,24.38
2023-01-22T03:54:04.316Z,24.15
2023-01-22T03:56:31.111Z,29.08
2023-01-22T03:59:03.792Z,25.98
2023-01-22T04:01:30.450Z,28.15
2023-01-22T04:03:57.045Z,26.10
2023-01-22T04:06:26.307Z,26.00
2023-01-22T04:08:54.931Z,25.00
2023-01-22T04:11:26.538Z,28.58
2023-01-22T04:13:54.669Z,30.00
2023-01-22T04:16:22.191Z,27.75
2023-01-22T04:19:09.704Z,26.77
2023-01-22T04:21:54.712Z,25.52
2023-01-22T04:24:21.200Z,27.77
2023-01-22T04:26:48.047Z,29.50
2023-01-22T04:29:17.615Z,28.48
2023-01-22T04:31:45.020Z,26.80
2023-01-22T04:34:28.311Z,24.67
2023-01-22T04:37:01.804Z,25.85
2023-01-22T04:39:31.964Z,24.67
2023-01-22T04:41:59.073Z,26.83
2023-01-22T04:44:25.828Z,25.98
2023-01-22T04:46:53.179Z,27.73
2023-01-22T04:49:20.217Z,25.63
2023-01-22T04:51:48.119Z,29.75
2023-01-22T04:54:14.614Z,23.73
2023-01-22T04:56:41.130Z,25.27
2023-01-22T04:59:08.188Z,25.75
2023-01-22T05:01:35.173Z,24.52
2023-01-22T05:04:03.403Z,22.40
2023-01-22T05:06:34.069Z,23.40
2023-01-22T05:09:01.796Z,23.48
2023-01-22T05:11:32.664Z,22.80
2023-01-22T05:14:02.346Z,24.13
2023-01-22T05:16:29.671Z,24.92
2023-01-22T05:18:56.297Z,24.05
2023-01-22T05:21:22.865Z,21.05
2023-01-22T05:23:49.385Z,22.90
2023-01-22T05:26:17.411Z,25.70
2023-01-22T05:28:53.163Z,21.75
2023-01-22T05:31:42.504Z,26.17
2023-01-22T05:34:25.369Z,24.35
2023-01-22T05:36:52.925Z,23.35
2023-01-22T05:39:23.989Z,24.05
2023-01-22T05:41:51.898Z,23.63
2023-01-22T05:44:18.411Z,25.50
2023-01-22T05:46:50.421Z,22.95
2023-01-22T05:49:26.199Z,23.15
2023-01-22T05:51:55.700Z,21.08
2023-01-22T05:54:22.227Z,24.00
2023-01-22T05:56:49.669Z,23.60
2023-01-22T05:59:17.916Z,22.08
2023-01-22T06:01:50.734Z,21.50
2023-01-22T06:04:18.192Z,23.65
2023-01-22T06:06:44.704Z,20.70
2023-01-22T06:09:14.207Z,23.10
2023-01-22T06:11:41.975Z,21.48
2023-01-22T06:14:08.385Z,23.17
2023-01-22T06:16:35.251Z,22.90
2023-01-22T06:19:07.446Z,21.87
2023-01-22T06:21:39.578Z,20.73
2023-01-22T06:24:06.490Z,23.00
2023-01-22T06:26:33.111Z,20.38
2023-01-22T06:29:00.810Z,22.33
2023-01-22T06:31:28.599Z,19.58
2023-01-22T06:33:55.633Z,20.75
2023-01-22T06:36:22.208Z,25.52
2023-01-22T06:38:48.768Z,23.40
2023-01-22T06:41:19.616Z,19.30
2023-01-22T06:43:49.014Z,20.17
2023-01-22T06:46:16.328Z,21.55
2023-01-22T06:49:02.568Z,22.23
2023-01-22T06:51:30.202Z,21.77
2023-01-22T06:53:56.986Z,21.33
2023-01-22T06:56:23.470Z,18.65
2023-01-22T06:58:50.778Z,20.92
2023-01-22T07:01:17.290Z,19.45
2023-01-22T07:03:45.985Z,20.30
2023-01-22T07:06:13.147Z,19.17
2023-01-22T07:08:40.915Z,20.40
2023-01-22T07:11:08.031Z,20.50
2023-01-22T07:13:34.652Z,22.70
2023-01-22T07:16:05.297Z,18.85
2023-01-22T07:18:31.833Z,21.52
2023-01-22T07:21:03.156Z,21.00
2023-01-22T07:23:30.206Z,21.73
2023-01-22T07:25:56.955Z,19.02
2023-01-22T07:28:23.738Z,22.27
2023-01-22T07:30:50.593Z,21.92
2023-01-22T07:33:18.856Z,19.48
2023-01-22T07:35:53.601Z,21.30
2023-01-22T07:38:20.233Z,20.55
2023-01-22T07:40:46.694Z,23.08
2023-01-22T07:43:15.036Z,20.92
2023-01-22T07:45:41.988Z,21.38
2023-01-22T07:48:10.649Z,20.45
2023-01-22T07:50:40.017Z,19.27
2023-01-22T07:53:08.048Z,18.52
2023-01-22T07:55:34.520Z,22.83
2023-01-22T07:58:03.639Z,19.85
2023-01-22T08:00:30.662Z,19.50
2023-01-22T08:02:57.281Z,18.50
2023-01-22T08:05:23.806Z,23.13
2023-01-22T08:07:50.710Z,18.95
2023-01-22T08:10:17.752Z,19.73
2023-01-22T08:12:46.373Z,18.70
2023-01-22T08:15:14.486Z,17.90
2023-01-22T08:17:41.701Z,17.80
2023-01-22T08:20:10.151Z,18.58
2023-01-22T08:22:36.843Z,16.95
2023-01-22T08:25:03.493Z,18.92
2023-01-22T08:27:29.992Z,16.02
2023-01-22T08:29:56.436Z,21.80
2023-01-22T08:32:22.966Z,16.88
2023-01-22T08:34:50.584Z,20.13
2023-01-22T08:37:17.050Z,18.33
2023-01-22T08:39:43.471Z,18.17
2023-01-22T08:42:09.908Z,20.38
2023-01-22T08:44:36.375Z,19.65
2023-01-22T08:47:02.911Z,18.65
2023-01-22T08:49:30.837Z,18.50
2023-01-22T08:51:57.292Z,19.38
2023-01-22T08:54:24.091Z,19.75
2023-01-22T08:56:50.729Z,25.60
2023-01-22T08:59:17.245Z,22.70
2023-01-22T09:01:43.943Z,21.65
2023-01-22T09:04:10.972Z,20.63
2023-01-22T09:06:38.640Z,19.70
2023-01-22T09:09:06.328Z,21.77
2023-01-22T09:11:33.542Z,19.88
2023-01-22T09:14:00.454Z,22.73
2023-01-22T09:16:27.735Z,22.83
2023-01-22T09:18:54.298Z,20.83
2023-01-22T09:21:20.768Z,21.63
2023-01-22T09:23:47.224Z,24.75
2023-01-22T09:26:13.673Z,20.23
2023-01-22T09:28:40.139Z,22.48
2023-01-22T09:31:06.635Z,25.27
2023-01-22T09:33:33.528Z,23.23
2023-01-22T09:36:11.883Z,20.13
2023-01-22T09:38:38.587Z,23.23
2023-01-22T09:41:39.910Z,20.77
2023-01-22T09:44:15.862Z,21.58
2023-01-22T09:46:49.557Z,20.42
2023-01-22T09:49:19.063Z,18.38
2023-01-22T09:51:55.389Z,20.73
2023-01-22T09:54:23.521Z,18.27
2023-01-22T09:56:55.969Z,19.85
2023-01-22T09:59:26.751Z,19.83
2023-01-22T10:02:00.262Z,20.92
2023-01-22T10:04:39.403Z,19.88
2023-01-22T10:07:12.573Z,18.38
2023-01-22T10:09:41.516Z,21.83
2023-01-22T10:12:13.414Z,19.83
2023-01-22T10:14:42.419Z,21.08
2023-01-22T10:17:18.784Z,21.73
2023-01-22T10:19:50.503Z,18.77
2023-01-22T10:22:22.329Z,21.17
2023-01-22T10:24:49.426Z,23.30
2023-01-22T10:27:18.394Z,19.67
2023-01-22T10:29:55.779Z,21.95
2023-01-22T10:32:25.296Z,20.75
2023-01-22T10:35:06.782Z,22.05
2023-01-22T10:38:02.365Z,21.38
2023-01-22T10:40:37.759Z,18.33
2023-01-22T10:43:13.750Z,20.65
2023-01-22T10:45:54.088Z,19.88
2023-01-22T10:48:21.675Z,23.77
2023-01-22T10:51:01.745Z,22.95
2023-01-22T10:53:35.289Z,21.50
2023-01-22T10:56:03.857Z,22.92
2023-01-22T10:58:36.895Z,25.55
2023-01-22T11:01:26.390Z,21.80
2023-01-22T11:03:52.929Z,20.73
2023-01-22T11:06:26.292Z,21.63
2023-01-22T11:11:43.055Z,23.40
2023-01-22T11:14:25.865Z,22.00
2023-01-22T11:16:56.650Z,22.17
2023-01-22T11:19:36.661Z,21.42
2023-01-22T11:22:11.774Z,20.63
2023-01-22T11:24:46.996Z,20.05
2023-01-22T11:27:25.783Z,24.52
2023-01-22T11:30:01.331Z,25.38
2023-01-22T11:32:49.232Z,21.85
2023-01-22T11:35:26.031Z,20.15
2023-01-22T11:38:00.404Z,20.85
2023-01-22T11:40:58.790Z,20.17
2023-01-22T11:44:13.583Z,21.48
2023-01-22T11:47:05.002Z,21.33
2023-01-22T11:49:45.205Z,24.02
2023-01-22T11:52:30.985Z,21.92
2023-01-22T11:55:19.729Z,19.90
2023-01-22T11:57:51.468Z,21.50
2023-01-22T12:00:40.533Z,20.48
2023-01-22T12:03:22.414Z,23.98
2023-01-22T12:06:12.734Z,23.02
2023-01-22T12:09:03.347Z,21.58
2023-01-22T12:12:17.794Z,22.65
2023-01-22T12:17:38.812Z,22.90
2023-01-22T12:20:18.023Z,24.13
2023-01-22T12:22:53.693Z,22.23
2023-01-22T12:25:29.280Z,19.90
2023-01-22T12:28:15.194Z,23.02
2023-01-22T12:31:02.732Z,23.08
2023-01-22T12:33:34.336Z,22.73
2023-01-22T12:36:03.876Z,21.73
2023-01-22T12:38:43.067Z,24.30
2023-01-22T12:41:39.088Z,25.75
2023-01-22T12:44:26.099Z,22.85
2023-01-22T12:46:58.770Z,23.08
2023-01-22T12:49:26.510Z,24.00
2023-01-22T12:51:55.198Z,22.63
2023-01-22T12:54:28.456Z,24.08
2023-01-22T12:57:08.951Z,23.20
2023-01-22T12:59:35.417Z,21.75
2023-01-22T13:02:05.583Z,23.00
2023-01-22T13:04:33.551Z,21.50
2023-01-22T13:07:23.096Z,20.17
2023-01-22T13:10:01.860Z,24.83
2023-01-22T13:12:40.024Z,25.17
2023-01-22T13:15:14.977Z,22.80
2023-01-22T13:17:41.868Z,22.25
2023-01-22T13:20:17.070Z,20.17
2023-01-22T13:22:44.211Z,20.15
2023-01-22T13:25:27.336Z,21.92
2023-01-22T13:27:54.643Z,24.90
2023-01-22T13:30:26.845Z,21.48
2023-01-22T13:33:12.269Z,21.35
2023-01-22T13:35:46.481Z,20.38
2023-01-22T13:38:23.105Z,23.63
2023-01-22T13:40:55.635Z,23.92
2023-01-22T13:43:22.881Z,28.60
2023-01-22T13:45:51.551Z,23.27
2023-01-22T13:48:19.831Z,22.20
2023-01-22T13:50:52.439Z,20.75
2023-01-22T13:53:25.832Z,22.20
2023-01-22T13:58:49.539Z,21.85
2023-01-22T14:01:31.259Z,23.90
2023-01-22T14:04:03.218Z,23.80
2023-01-22T14:06:29.909Z,23.60
2023-01-22T14:08:57.892Z,22.52
2023-01-22T14:11:24.367Z,23.70
2023-01-22T14:13:53.022Z,23.30
2023-01-22T14:16:19.633Z,23.98
2023-01-22T14:18:46.869Z,21.30
2023-01-22T14:21:13.576Z,27.60
2023-01-22T14:23:41.611Z,25.33
2023-01-22T14:26:09.208Z,22.77
2023-01-22T14:28:36.896Z,24.55
2023-01-22T14:31:04.922Z,24.98
2023-01-22T14:33:33.615Z,24.50
2023-01-22T14:36:00.191Z,23.25
2023-01-22T14:38:27.351Z,25.50
2023-01-22T14:40:54.342Z,24.52
2023-01-22T14:43:21.159Z,26.10
2023-01-22T14:45:47.651Z,26.50
2023-01-22T14:48:19.589Z,25.30
2023-01-22T14:50:46.786Z,25.77
2023-01-22T14:53:13.921Z,26.40
2023-01-22T14:55:42.393Z,27.25
2023-01-22T14:58:10.065Z,28.00
2023-01-22T15:00:37.031Z,29.40
2023-01-22T15:03:03.843Z,29.90
2023-01-22T15:05:30.603Z,33.90
2023-01-22T15:07:57.159Z,30.75
2023-01-22T15:10:23.597Z,34.28
2023-01-22T15:12:51.539Z,30.85
2023-01-22T15:15:26.254Z,29.05
2023-01-22T15:17:54.559Z,33.88
2023-01-22T15:20:21.531Z,28.42
2023-01-22T15:22:49.658Z,31.67
2023-01-22T15:25:16.466Z,31.63
2023-01-22T15:27:44.372Z,28.40
2023-01-22T15:30:12.698Z,31.45
2023-01-22T15:32:39.618Z,33.33
2023-01-22T15:35:06.503Z,32.20
2023-01-22T15:37:33.084Z,34.10
2023-01-22T15:40:00.132Z,33.67
2023-01-22T15:42:26.589Z,31.58
2023-01-22T15:44:52.999Z,34.53
2023-01-22T15:47:19.449Z,33.10
2023-01-22T15:49:45.951Z,32.75
2023-01-22T15:52:12.348Z,31.17
2023-01-22T15:54:38.779Z,31.75
2023-01-22T15:57:05.544Z,35.83
2023-01-22T15:59:33.071Z,30.73
2023-01-22T16:01:59.778Z,32.65
2023-01-22T16:04:26.678Z,39.85
2023-01-22T16:06:53.167Z,32.63
2023-01-22T16:09:19.634Z,35.72
2023-01-22T16:11:46.105Z,35.10
2023-01-22T16:14:12.541Z,33.65
2023-01-22T16:16:39.092Z,38.92
2023-01-22T16:19:07.178Z,31.58
2023-01-22T16:21:34.525Z,33.42
2023-01-22T16:24:01.982Z,37.03
2023-01-22T16:26:34.484Z,33.33
2023-01-22T16:29:02.921Z,34.30
2023-01-22T16:31:32.058Z,35.58
2023-01-22T16:34:01.339Z,34.17
2023-01-22T16:36:29.585Z,34.25
2023-01-22T16:38:56.369Z,36.47
2023-01-22T16:41:41.213Z,38.63
2023-01-22T16:44:14.704Z,34.58
2023-01-22T16:46:43.265Z,37.22
2023-01-22T16:49:15.758Z,36.70
2023-01-22T16:51:45.356Z,31.27
2023-01-22T16:54:27.743Z,33.88
2023-01-22T16:56:56.054Z,35.38
2023-01-22T16:59:22.612Z,32.70
2023-01-22T17:01:49.697Z,37.78
2023-01-22T17:04:16.232Z,32.28
2023-01-22T17:06:49.307Z,32.70
2023-01-22T17:09:23.303Z,35.85
2023-01-22T17:11:51.600Z,36.40
2023-01-22T17:14:20.600Z,35.50
2023-01-22T17:16:47.835Z,35.30
2023-01-22T17:19:15.528Z,33.85
2023-01-22T17:21:42.188Z,37.92
2023-01-22T17:24:11.053Z,34.88
2023-01-22T17:26:37.790Z,32.03
2023-01-22T17:29:04.495Z,32.03
2023-01-22T17:31:31.462Z,35.33
2023-01-22T17:33:58.943Z,31.70
2023-01-22T17:36:25.692Z,37.45
2023-01-22T17:38:52.567Z,37.17
2023-01-22T17:41:21.281Z,33.35
2023-01-22T17:43:50.575Z,34.78
2023-01-22T17:46:19.964Z,38.40
2023-01-22T17:48:48.268Z,34.75
2023-01-22T17:51:17.565Z,34.45
2023-01-22T17:53:45.786Z,40.10
2023-01-22T17:56:26.934Z,36.25
2023-01-22T17:58:55.955Z,35.75
2023-01-22T18:01:24.916Z,40.53
2023-01-22T18:03:51.457Z,43.17
2023-01-22T18:06:18.415Z,38.95
2023-01-22T18:08:45.126Z,37.60
2023-01-22T18:11:14.598Z,39.15
2023-01-22T18:13:41.839Z,33.38
2023-01-22T18:16:12.168Z,38.28
2023-01-22T18:18:39.225Z,41.60
2023-01-22T18:21:06.869Z,38.72
2023-01-22T18:23:33.399Z,40.70
2023-01-22T18:26:04.530Z,34.05
2023-01-22T18:28:31.263Z,36.45
2023-01-22T18:31:04.663Z,36.28
2023-01-22T18:33:33.258Z,33.55
2023-01-22T18:36:00.330Z,40.80
2023-01-22T18:38:28.425Z,38.47
2023-01-22T18:40:56.030Z,39.15
2023-01-22T18:43:22.517Z,36.03
2023-01-22T18:45:49.068Z,39.50
2023-01-22T18:48:16.107Z,36.13
2023-01-22T18:50:42.970Z,35.60
2023-01-22T18:53:09.564Z,39.47
2023-01-22T18:55:36.526Z,38.25
2023-01-22T18:58:18.540Z,43.85
2023-01-22T19:00:45.006Z,36.20
2023-01-22T19:03:12.303Z,38.47
2023-01-22T19:05:39.658Z,44.45
2023-01-22T19:08:06.114Z,39.72
2023-01-22T19:10:32.623Z,39.42
2023-01-22T19:12:59.024Z,40.08
2023-01-22T19:15:25.482Z,42.33
2023-01-22T19:17:51.881Z,37.97
2023-01-22T19:20:18.484Z,44.00
2023-01-22T19:22:45.064Z,42.60
2023-01-22T19:25:11.567Z,43.33
2023-01-22T19:27:38.191Z,44.17
2023-01-22T19:30:05.672Z,43.83
2023-01-22T19:32:34.981Z,43.33
2023-01-22T19:35:01.634Z,45.03
2023-01-22T19:37:29.400Z,49.38
2023-01-22T19:39:57.022Z,46.58
2023-01-22T19:42:24.379Z,51.83
2023-01-22T19:44:51.726Z,43.70
2023-01-22T19:47:19.890Z,47.42
2023-01-22T19:49:46.451Z,46.33
2023-01-22T19:52:16.225Z,54.90
2023-01-22T19:54:47.231Z,51.10
2023-01-22T19:57:15.376Z,45.92
2023-01-22T19:59:42.554Z,46.25
2023-01-22T20:02:14.054Z,50.67
2023-01-22T20:04:40.955Z,46.25
2023-01-22T20:07:07.611Z,44.00
2023-01-22T20:09:35.514Z,50.75
2023-01-22T20:12:02.671Z,46.03
2023-01-22T20:14:31.036Z,48.90
2023-01-22T20:16:58.721Z,55.35
2023-01-22T20:19:25.335Z,50.75
2023-01-22T20:21:51.954Z,48.58
2023-01-22T20:24:18.388Z,53.22
2023-01-22T20:26:45.173Z,57.63
2023-01-22T20:29:15.637Z,52.45
2023-01-22T20:31:42.200Z,53.72
2023-01-22T20:34:08.722Z,51.22
2023-01-22T20:36:35.530Z,58.15
2023-01-22T20:39:02.066Z,51.97
2023-01-22T20:41:29.917Z,53.80
2023-01-22T20:43:56.495Z,59.72
2023-01-22T20:46:25.064Z,52.42
2023-01-22T20:48:52.771Z,59.65
2023-01-22T20:51:23.249Z,61.00
2023-01-22T20:53:52.006Z,67.00
2023-01-22T20:56:28.783Z,65.80
2023-01-22T20:58:57.335Z,61.50
2023-01-22T21:01:24.189Z,66.55
2023-01-22T21:03:50.646Z,61.78
2023-01-22T21:06:19.632Z,64.68
2023-01-22T21:08:51.300Z,62.88
2023-01-22T21:11:20.240Z,62.78
2023-01-22T21:13:48.886Z,53.33
2023-01-22T21:16:26.128Z,66.88
2023-01-22T21:19:01.086Z,64.07
2023-01-22T21:21:29.007Z,62.35
2023-01-22T21:23:56.233Z,63.20
2023-01-22T21:26:33.044Z,62.08
2023-01-22T21:29:05.719Z,62.35
2023-01-22T21:31:32.305Z,64.00
2023-01-22T21:34:03.838Z,61.28
2023-01-22T21:36:31.629Z,67.75
2023-01-22T21:38:58.100Z,56.75
2023-01-22T21:41:24.898Z,60.58
2023-01-22T21:44:10.092Z,56.95
2023-01-22T21:46:43.363Z,59.92
2023-01-22T21:49:18.507Z,63.63
2023-01-22T21:51:52.501Z,61.22
2023-01-22T21:54:22.328Z,56.28
2023-01-22T21:56:49.246Z,57.90
2023-01-22T21:59:16.218Z,56.88
2023-01-22T22:01:43.471Z,63.13
2023-01-22T22:04:10.779Z,60.53
2023-01-22T22:06:37.861Z,58.85
2023-01-22T22:09:07.415Z,59.22
2023-01-22T22:11:34.373Z,55.38
2023-01-22T22:14:00.894Z,63.88
2023-01-22T22:16:27.430Z,56.65
2023-01-22T22:18:56.769Z,48.53
2023-01-22T22:21:23.608Z,58.78
2023-01-22T22:23:51.015Z,55.22
2023-01-22T22:26:18.117Z,55.10
2023-01-22T22:28:44.762Z,53.03
2023-01-22T22:31:16.072Z,59.28
2023-01-22T22:33:44.730Z,57.63
2023-01-22T22:36:13.151Z,52.15
2023-01-22T22:38:39.989Z,58.20
2023-01-22T22:41:15.464Z,50.50
2023-01-22T22:43:44.758Z,51.13
2023-01-22T22:46:18.178Z,52.75
2023-01-22T22:48:46.806Z,50.08
2023-01-22T22:51:17.172Z,55.08
2023-01-22T22:53:44.238Z,56.35
2023-01-22T22:56:11.899Z,50.67
2023-01-22T22:58:39.073Z,52.13
2023-01-22T23:01:20.753Z,60.15
2023-01-22T23:03:47.868Z,59.70
2023-01-22T23:06:19.761Z,50.40
2023-01-22T23:08:55.367Z,52.88
2023-01-22T23:11:25.703Z,55.00
2023-01-22T23:13:52.774Z,49.85
2023-01-22T23:16:21.768Z,52.50
2023-01-22T23:18:50.757Z,52.30
2023-01-22T23:21:24.555Z,49.55
2023-01-22T23:23:52.594Z,57.22
2023-01-22T23:26:26.456Z,58.42
2023-01-22T23:28:56.708Z,59.67
2023-01-22T23:31:24.815Z,54.80
2023-01-22T23:33:52.224Z,50.70
2023-01-22T23:36:18.714Z,52.55
2023-01-22T23:38:45.611Z,52.95
2023-01-22T23:41:15.292Z,52.30
2023-01-22T23:43:43.152Z,49.53
2023-01-22T23:46:12.858Z,51.35
2023-01-22T23:48:39.385Z,53.40
2023-01-22T23:51:10.008Z,53.03
2023-01-22T23:53:38.217Z,50.90
2023-01-22T23:56:05.358Z,45.47
2023-01-22T23:58:32.594Z,52.65
